createdAt,value
2023-04-15T00:02:43.548Z,79.87
2023-04-15T00:08:46.464Z,80.18
2023-04-15T00:14:51.726Z,81.24
2023-04-15T00:20:54.202Z,81.27
2023-04-15T00:26:56.762Z,83.16
2023-04-15T00:32:59.683Z,82.42
2023-04-15T00:39:12.637Z,83.31
2023-04-15T00:45:20.180Z,84.98
2023-04-15T00:51:28.331Z,84.69
2023-04-15T00:57:31.349Z,84.55
2023-04-15T01:03:36.758Z,84.60
2023-04-15T01:09:42.048Z,84.53
2023-04-15T01:15:47.596Z,84.22
2023-04-15T01:21:54.021Z,85.70
2023-04-15T01:27:57.228Z,86.50
2023-04-15T01:34:01.943Z,84.47
2023-04-15T01:40:06.389Z,84.45
2023-04-15T01:46:13.539Z,85.36
2023-04-15T01:52:16.588Z,84.58
2023-04-15T01:58:23.501Z,85.82
2023-04-15T02:04:26.311Z,86.03
2023-04-15T02:10:29.788Z,85.43
2023-04-15T02:16:33.237Z,84.99
2023-04-15T02:22:35.661Z,85.18
2023-04-15T02:28:40.108Z,86.11
2023-04-15T02:34:44.370Z,86.75
2023-04-15T02:40:48.852Z,86.08
2023-04-15T02:46:53.562Z,86.28
2023-04-15T02:52:55.996Z,86.10
2023-04-15T02:58:59.615Z,86.38
2023-04-15T03:05:03.970Z,85.96
2023-04-15T03:11:06.420Z,86.38
2023-04-15T03:17:15.997Z,86.21
2023-04-15T03:23:18.394Z,86.54
2023-04-15T03:29:20.850Z,86.80
2023-04-15T03:35:23.310Z,87.46
2023-04-15T03:41:32.956Z,87.32
2023-04-15T03:47:38.356Z,86.70
2023-04-15T03:53:40.712Z,86.58
2023-04-15T03:59:48.347Z,86.27
2023-04-15T04:05:56.021Z,86.79
2023-04-15T04:12:01.308Z,87.37
2023-04-15T04:18:03.528Z,85.99
2023-04-15T04:24:08.107Z,86.05
2023-04-15T04:30:10.567Z,85.63
2023-04-15T04:36:14.013Z,85.84
2023-04-15T04:42:21.491Z,84.56
2023-04-15T04:48:43.088Z,84.96
2023-04-15T04:54:45.497Z,85.17
2023-04-15T05:00:47.988Z,85.17
2023-04-15T05:06:51.420Z,85.22
2023-04-15T05:12:54.416Z,85.12
2023-04-15T05:18:57.303Z,84.40
2023-04-15T05:24:59.809Z,84.72
2023-04-15T05:31:02.308Z,84.51
2023-04-15T05:37:10.006Z,83.87
2023-04-15T05:43:21.294Z,84.12
2023-04-15T05:49:28.734Z,82.80
2023-04-15T05:55:32.182Z,83.87
2023-04-15T06:01:35.631Z,82.51
2023-04-15T06:07:40.133Z,81.57
2023-04-15T06:13:42.604Z,82.47
2023-04-15T06:19:47.543Z,81.21
2023-04-15T06:25:50.506Z,82.05
2023-04-15T06:32:06.254Z,81.73
2023-04-15T06:38:08.467Z,80.45
2023-04-15T06:44:10.920Z,78.90
2023-04-15T06:50:17.663Z,79.67
2023-04-15T06:56:20.879Z,78.13
2023-04-15T07:02:24.648Z,77.62
2023-04-15T07:08:26.838Z,77.41
2023-04-15T07:14:31.277Z,76.20
2023-04-15T07:20:33.753Z,74.84
2023-04-15T07:26:37.102Z,74.78
2023-04-15T07:32:39.704Z,74.96
2023-04-15T07:38:42.145Z,73.95
2023-04-15T07:44:44.596Z,74.19
2023-04-15T07:50:50.461Z,74.52
2023-04-15T07:56:52.535Z,73.11
2023-04-15T08:02:57.850Z,73.60
2023-04-15T08:09:00.826Z,71.93
2023-04-15T08:15:14.149Z,71.58
2023-04-15T08:21:20.512Z,71.48
2023-04-15T08:27:24.001Z,71.77
2023-04-15T08:33:29.531Z,70.74
2023-04-15T08:39:32.979Z,70.40
2023-04-15T08:45:40.464Z,69.42
2023-04-15T08:51:43.960Z,69.30
2023-04-15T08:57:46.370Z,69.97
2023-04-15T09:03:50.754Z,69.84
2023-04-15T09:09:55.326Z,71.34
2023-04-15T09:16:02.810Z,70.26
2023-04-15T09:22:07.518Z,70.06
2023-04-15T09:28:14.505Z,68.78
2023-04-15T09:34:21.326Z,66.84
2023-04-15T09:40:58.277Z,66.57
2023-04-15T09:47:03.129Z,66.39
2023-04-15T09:53:05.733Z,63.81
2023-04-15T09:59:09.258Z,65.55
2023-04-15T10:05:18.122Z,65.81
2023-04-15T10:11:22.201Z,64.12
2023-04-15T10:17:31.626Z,64.28
2023-04-15T10:23:39.201Z,63.94
2023-04-15T10:29:41.654Z,65.21
2023-04-15T10:35:47.319Z,66.84
2023-04-15T10:42:08.999Z,67.01
2023-04-15T10:48:26.168Z,68.24
2023-04-15T10:54:32.670Z,68.80
2023-04-15T11:00:38.120Z,67.42
2023-04-15T11:06:46.963Z,68.30
2023-04-15T11:12:53.067Z,67.52
2023-04-15T11:18:59.488Z,67.85
2023-04-15T11:25:04.552Z,67.32
2023-04-15T11:31:17.155Z,67.63
2023-04-15T11:37:28.043Z,67.89
2023-04-15T11:43:38.260Z,68.13
2023-04-15T11:49:43.338Z,66.67
2023-04-15T11:55:56.480Z,68.92
2023-04-15T12:02:00.023Z,71.17
2023-04-15T12:08:03.943Z,73.18
2023-04-15T12:14:29.009Z,77.21
2023-04-15T12:20:32.448Z,74.05
2023-04-15T12:26:50.981Z,75.57
2023-04-15T12:32:56.169Z,76.67
2023-04-15T12:39:04.928Z,76.88
2023-04-15T12:45:08.394Z,76.32
2023-04-15T12:51:10.914Z,74.52
2023-04-15T12:57:13.316Z,74.51
2023-04-15T13:03:18.867Z,73.23
2023-04-15T13:09:26.079Z,75.35
2023-04-15T13:15:29.739Z,75.66
2023-04-15T13:21:37.225Z,75.87
2023-04-15T13:27:39.761Z,75.22
2023-04-15T13:33:41.567Z,76.17
2023-04-15T13:39:47.666Z,75.82
2023-04-15T13:45:51.157Z,75.07
2023-04-15T13:51:53.616Z,75.44
2023-04-15T14:04:18.764Z,74.88
2023-04-15T14:10:23.113Z,74.68
2023-04-15T14:16:33.555Z,74.81
2023-04-15T14:22:36.047Z,75.28
2023-04-15T14:28:39.554Z,73.73
2023-04-15T14:34:41.917Z,74.62
2023-04-15T14:40:44.396Z,74.58
2023-04-15T14:46:46.842Z,75.31
2023-04-15T14:52:50.316Z,76.53
2023-04-15T15:49:25.477Z,74.62
2023-04-15T16:24:58.209Z,75.05
2023-04-15T16:31:39.966Z,75.81
2023-04-15T19:36:22.298Z,75.63
2023-04-15T19:57:09.840Z,78.61
2023-04-15T20:04:41.704Z,78.94
2023-04-15T20:10:38.920Z,80.59
2023-04-15T20:32:05.822Z,80.52
2023-04-15T21:14:25.471Z,81.93
2023-04-15T21:49:45.078Z,80.17
2023-04-15T21:55:57.007Z,80.53
2023-04-15T22:16:13.572Z,78.97
2023-04-15T22:29:22.664Z,79.38
